createdAt,value
2023-02-03T00:01:32.307Z,9.99
2023-02-03T00:04:19.015Z,9.67
2023-02-03T00:07:05.654Z,9.79
2023-02-03T00:09:52.266Z,9.72
2023-02-03T00:12:40.210Z,9.90
2023-02-03T00:15:26.835Z,9.95
2023-02-03T00:18:13.126Z,9.78
2023-02-03T00:20:59.762Z,9.62
2023-02-03T00:23:46.622Z,9.77
2023-02-03T00:26:32.975Z,9.79
2023-02-03T00:29:25.687Z,10.00
2023-02-03T00:32:12.631Z,10.00
2023-02-03T00:34:59.417Z,9.66
2023-02-03T00:37:51.902Z,10.00
2023-02-03T00:40:38.148Z,9.76
2023-02-03T00:43:24.786Z,10.25
2023-02-03T00:46:14.768Z,9.81
2023-02-03T00:49:01.391Z,10.14
2023-02-03T00:51:48.478Z,10.17
2023-02-03T00:54:35.097Z,10.23
2023-02-03T00:57:22.726Z,10.04
2023-02-03T01:00:10.720Z,10.30
2023-02-03T01:02:59.117Z,10.39
2023-02-03T01:05:45.894Z,10.17
2023-02-03T01:08:32.463Z,10.54
2023-02-03T01:11:20.844Z,9.91
2023-02-03T01:14:08.564Z,9.92
2023-02-03T01:16:56.409Z,10.14
2023-02-03T01:19:45.099Z,10.10
2023-02-03T01:22:31.990Z,10.13
2023-02-03T01:25:18.214Z,10.36
2023-02-03T01:28:05.991Z,10.31
2023-02-03T01:30:52.642Z,10.29
2023-02-03T01:33:40.892Z,10.23
2023-02-03T01:36:32.065Z,9.95
2023-02-03T01:39:18.716Z,9.89
2023-02-03T01:42:05.907Z,9.90
2023-02-03T01:44:52.896Z,9.91
2023-02-03T01:47:45.945Z,10.03
2023-02-03T01:50:35.417Z,9.96
2023-02-03T01:53:23.755Z,10.16
2023-02-03T01:56:10.786Z,10.01
2023-02-03T01:59:00.221Z,9.99
2023-02-03T02:01:47.875Z,10.72
2023-02-03T02:04:44.146Z,10.22
2023-02-03T02:07:33.567Z,10.30
2023-02-03T02:10:22.175Z,10.70
2023-02-03T02:13:08.409Z,10.39
2023-02-03T02:16:01.564Z,10.15
2023-02-03T02:19:01.143Z,10.39
2023-02-03T02:21:59.056Z,10.31
2023-02-03T02:25:15.621Z,10.33
2023-02-03T02:28:50.751Z,10.42
2023-02-03T02:31:51.686Z,10.36
2023-02-03T02:34:50.409Z,10.34
2023-02-03T02:37:45.902Z,10.39
2023-02-03T02:40:38.891Z,10.19
2023-02-03T02:43:37.406Z,10.44
2023-02-03T02:46:30.015Z,10.50
2023-02-03T02:49:24.494Z,10.45
2023-02-03T02:52:14.218Z,10.47
2023-02-03T02:55:06.527Z,10.39
2023-02-03T02:57:56.786Z,10.46
2023-02-03T03:00:45.816Z,10.50
2023-02-03T03:03:33.143Z,10.68
2023-02-03T03:06:27.198Z,10.29
2023-02-03T03:09:17.972Z,10.45
2023-02-03T03:12:07.987Z,10.46
2023-02-03T03:14:58.979Z,10.33
2023-02-03T03:17:51.004Z,10.37
2023-02-03T03:20:42.868Z,10.45
2023-02-03T03:23:34.391Z,10.43
2023-02-03T03:26:28.737Z,10.72
2023-02-03T03:29:19.838Z,10.60
2023-02-03T03:32:07.024Z,10.61
2023-02-03T03:34:53.751Z,10.37
2023-02-03T03:37:45.053Z,10.72
2023-02-03T03:40:37.354Z,10.86
2023-02-03T03:43:29.341Z,10.61
2023-02-03T03:46:22.660Z,10.71
2023-02-03T03:49:11.710Z,10.68
2023-02-03T03:52:03.523Z,11.13
2023-02-03T03:54:52.241Z,10.76
2023-02-03T03:57:45.160Z,10.75
2023-02-03T04:00:34.699Z,10.75
2023-02-03T04:03:25.960Z,10.75
2023-02-03T04:06:14.781Z,10.71
2023-02-03T04:09:02.176Z,10.92
2023-02-03T04:12:05.950Z,10.73
2023-02-03T04:14:53.941Z,10.49
2023-02-03T04:17:40.425Z,10.61
2023-02-03T04:20:27.208Z,10.54
2023-02-03T04:23:14.208Z,10.81
2023-02-03T04:26:02.152Z,10.96
2023-02-03T04:28:48.959Z,10.67
2023-02-03T04:31:38.568Z,11.04
2023-02-03T04:34:25.244Z,10.85
2023-02-03T04:37:11.818Z,10.92
2023-02-03T04:39:58.252Z,10.78
2023-02-03T04:42:44.964Z,10.60
2023-02-03T04:45:31.547Z,10.80
2023-02-03T04:48:19.253Z,10.95
2023-02-03T04:51:07.732Z,10.96
2023-02-03T04:53:54.527Z,10.65
2023-02-03T04:56:41.033Z,10.74
2023-02-03T04:59:28.027Z,10.87
2023-02-03T05:02:14.700Z,10.85
2023-02-03T05:05:02.439Z,10.46
2023-02-03T05:07:49.085Z,10.74
2023-02-03T05:10:35.759Z,10.93
2023-02-03T05:13:22.323Z,10.48
2023-02-03T05:16:08.747Z,10.92
2023-02-03T05:18:55.575Z,10.64
2023-02-03T05:21:43.044Z,10.63
2023-02-03T05:24:29.424Z,10.85
2023-02-03T05:27:16.099Z,10.52
2023-02-03T05:30:02.813Z,10.74
2023-02-03T05:32:50.174Z,10.77
2023-02-03T05:35:36.729Z,10.52
2023-02-03T05:38:25.452Z,10.62
2023-02-03T05:41:31.451Z,10.49
2023-02-03T05:44:18.128Z,10.59
2023-02-03T05:47:05.429Z,10.63
2023-02-03T05:49:52.186Z,10.61
2023-02-03T05:52:38.450Z,10.58
2023-02-03T05:55:26.357Z,10.66
2023-02-03T05:58:13.282Z,10.68
2023-02-03T06:00:59.892Z,10.40
2023-02-03T06:03:46.928Z,10.71
2023-02-03T06:06:34.340Z,10.73
2023-02-03T06:09:21.028Z,10.51
2023-02-03T06:12:09.216Z,10.81
2023-02-03T06:14:55.684Z,10.58
2023-02-03T06:17:45.312Z,10.75
2023-02-03T06:20:31.905Z,10.80
2023-02-03T06:23:19.425Z,10.96
2023-02-03T06:26:06.501Z,10.90
2023-02-03T06:28:56.437Z,10.74
2023-02-03T06:31:43.074Z,10.90
2023-02-03T06:34:29.556Z,10.90
2023-02-03T06:37:16.465Z,11.15
2023-02-03T06:40:04.374Z,11.24
2023-02-03T06:42:51.192Z,11.07
2023-02-03T06:45:39.324Z,11.21
2023-02-03T06:48:25.875Z,11.67
2023-02-03T06:51:12.444Z,11.08
2023-02-03T06:53:59.791Z,11.08
2023-02-03T06:56:46.051Z,10.93
2023-02-03T06:59:32.672Z,10.63
2023-02-03T07:02:20.876Z,10.44
2023-02-03T07:05:08.406Z,10.72
2023-02-03T07:07:55.358Z,10.82
2023-02-03T07:10:41.919Z,10.74
2023-02-03T07:13:28.752Z,10.61
2023-02-03T07:16:15.764Z,10.62
2023-02-03T07:19:04.180Z,10.67
2023-02-03T07:21:50.862Z,10.21
2023-02-03T07:24:38.002Z,10.68
2023-02-03T07:27:24.440Z,10.69
2023-02-03T07:30:12.639Z,10.42
2023-02-03T07:32:59.884Z,10.70
2023-02-03T07:35:53.045Z,10.99
2023-02-03T07:38:39.609Z,10.68
2023-02-03T07:41:26.310Z,10.63
2023-02-03T07:44:13.080Z,11.23
2023-02-03T07:46:59.626Z,10.78
2023-02-03T07:49:46.201Z,11.12
2023-02-03T07:52:34.102Z,11.05
2023-02-03T07:55:20.701Z,11.12
2023-02-03T07:58:07.781Z,10.95
2023-02-03T08:00:54.413Z,11.27
2023-02-03T08:03:41.140Z,10.81
2023-02-03T08:06:27.641Z,11.31
2023-02-03T08:09:15.559Z,11.13
2023-02-03T08:12:02.460Z,11.17
2023-02-03T08:14:48.866Z,11.09
2023-02-03T08:17:35.308Z,10.96
2023-02-03T08:20:22.547Z,11.27
2023-02-03T08:23:08.906Z,11.14
2023-02-03T08:25:56.947Z,11.55
2023-02-03T08:28:43.509Z,11.29
2023-02-03T08:31:30.261Z,11.22
2023-02-03T08:34:16.799Z,11.39
2023-02-03T08:37:03.483Z,11.41
2023-02-03T08:39:49.954Z,11.31
2023-02-03T08:42:38.105Z,11.45
2023-02-03T08:45:24.744Z,11.63
2023-02-03T08:48:11.279Z,11.83
2023-02-03T08:50:57.800Z,11.86
2023-02-03T08:53:44.631Z,12.12
2023-02-03T08:56:31.186Z,11.58
2023-02-03T08:59:20.006Z,12.31
2023-02-03T09:02:07.665Z,12.66
2023-02-03T09:04:54.380Z,12.30
2023-02-03T09:07:41.032Z,12.17
2023-02-03T09:10:28.050Z,12.32
2023-02-03T09:13:14.912Z,12.82
2023-02-03T09:16:02.898Z,12.13
2023-02-03T09:18:49.975Z,12.03
2023-02-03T09:21:44.711Z,12.78
2023-02-03T09:24:34.617Z,11.89
2023-02-03T09:27:21.310Z,12.29
2023-02-03T09:30:08.780Z,12.41
2023-02-03T09:32:56.623Z,12.52
2023-02-03T09:35:43.254Z,12.19
2023-02-03T09:38:30.208Z,12.70
2023-02-03T09:41:30.997Z,12.87
2023-02-03T09:44:22.789Z,12.33
2023-02-03T09:47:16.507Z,12.97
2023-02-03T09:50:08.469Z,13.53
2023-02-03T09:52:56.661Z,12.66
2023-02-03T09:55:45.932Z,12.37
2023-02-03T09:58:35.388Z,13.00
2023-02-03T10:01:25.387Z,12.97
2023-02-03T10:04:24.541Z,12.47
2023-02-03T10:07:20.301Z,12.65
2023-02-03T10:10:16.971Z,13.23
2023-02-03T10:13:24.219Z,13.05
2023-02-03T10:16:26.534Z,12.30
2023-02-03T10:19:17.822Z,12.28
2023-02-03T10:22:07.151Z,12.14
2023-02-03T10:25:00.165Z,12.36
2023-02-03T10:27:47.042Z,12.91
2023-02-03T10:30:45.338Z,12.33
2023-02-03T10:33:34.472Z,12.95
2023-02-03T10:36:22.480Z,13.31
2023-02-03T10:39:21.040Z,13.06
2023-02-03T10:42:11.874Z,12.95
2023-02-03T10:45:00.054Z,12.98
2023-02-03T10:47:51.481Z,13.08
2023-02-03T10:50:45.266Z,13.18
2023-02-03T10:53:35.298Z,13.42
2023-02-03T10:56:26.365Z,13.57
2023-02-03T10:59:29.614Z,13.56
2023-02-03T11:02:25.654Z,13.70
2023-02-03T11:05:21.709Z,13.76
2023-02-03T11:08:15.865Z,14.04
2023-02-03T11:11:06.864Z,14.21
2023-02-03T11:13:55.733Z,14.03
2023-02-03T11:16:47.269Z,13.51
2023-02-03T11:19:33.990Z,14.00
2023-02-03T11:22:32.561Z,14.77
2023-02-03T11:25:25.901Z,14.21
2023-02-03T11:28:14.372Z,14.56
2023-02-03T11:31:01.099Z,14.25
2023-02-03T11:33:56.134Z,14.49
2023-02-03T11:36:43.179Z,15.17
2023-02-03T11:39:35.582Z,14.90
2023-02-03T11:42:23.598Z,14.89
2023-02-03T11:45:15.404Z,14.23
2023-02-03T11:48:07.551Z,14.19
2023-02-03T11:51:02.019Z,15.02
2023-02-03T11:54:03.526Z,14.65
2023-02-03T11:57:09.602Z,14.91
2023-02-03T12:00:05.664Z,14.98
2023-02-03T12:03:32.873Z,14.97
2023-02-03T12:06:50.802Z,14.89
2023-02-03T12:09:51.903Z,15.36
2023-02-03T12:12:49.698Z,15.18
2023-02-03T12:15:52.585Z,15.41
2023-02-03T12:18:51.265Z,14.97
2023-02-03T12:21:47.486Z,15.13
2023-02-03T12:24:44.184Z,15.04
2023-02-03T12:27:42.700Z,14.10
2023-02-03T12:30:36.216Z,14.23
2023-02-03T12:33:27.687Z,13.91
2023-02-03T12:36:19.690Z,14.04
2023-02-03T12:39:18.981Z,13.94
2023-02-03T12:42:13.994Z,13.81
2023-02-03T12:45:06.790Z,14.01
2023-02-03T12:47:57.832Z,14.29
2023-02-03T12:50:50.340Z,14.49
2023-02-03T12:53:42.616Z,13.97
2023-02-03T12:56:36.740Z,14.08
2023-02-03T12:59:26.786Z,14.37
2023-02-03T13:02:20.194Z,13.60
2023-02-03T13:05:17.158Z,13.37
2023-02-03T13:08:13.058Z,13.89
2023-02-03T13:11:12.923Z,13.64
2023-02-03T13:14:06.911Z,13.15
2023-02-03T13:16:58.774Z,13.27
2023-02-03T13:19:48.869Z,13.17
2023-02-03T13:22:35.570Z,13.17
2023-02-03T13:25:26.815Z,13.19
2023-02-03T13:28:24.484Z,13.27
2023-02-03T13:31:25.186Z,13.39
2023-02-03T13:34:26.004Z,13.26
2023-02-03T13:37:27.187Z,13.48
2023-02-03T13:40:22.149Z,13.50
2023-02-03T13:43:22.976Z,13.79
2023-02-03T13:46:26.708Z,14.21
2023-02-03T13:49:24.414Z,13.96
2023-02-03T13:52:26.039Z,13.77
2023-02-03T13:55:29.398Z,14.16
2023-02-03T13:58:27.663Z,11.39
2023-02-03T14:01:33.791Z,14.03
2023-02-03T14:04:51.849Z,13.20
2023-02-03T14:07:40.542Z,13.00
2023-02-03T14:10:27.258Z,13.13
2023-02-03T14:13:21.434Z,12.88
2023-02-03T14:16:16.433Z,13.22
2023-02-03T14:19:05.033Z,13.86
2023-02-03T14:21:55.581Z,13.56
2023-02-03T14:24:46.541Z,13.51
2023-02-03T14:27:33.683Z,13.86
2023-02-03T14:30:20.479Z,13.84
2023-02-03T14:33:07.042Z,13.10
2023-02-03T14:35:55.091Z,13.05
2023-02-03T14:38:42.556Z,13.58
2023-02-03T14:41:41.512Z,13.40
2023-02-03T14:44:36.943Z,13.55
2023-02-03T14:47:36.246Z,13.30
2023-02-03T14:50:35.976Z,12.65
2023-02-03T14:53:38.391Z,12.85
2023-02-03T14:56:55.737Z,13.30
2023-02-03T14:59:45.879Z,12.71
2023-02-03T15:02:34.944Z,13.26
2023-02-03T15:05:39.942Z,12.81
2023-02-03T15:08:49.136Z,12.73
2023-02-03T15:11:35.759Z,12.52
2023-02-03T15:14:25.308Z,13.30
2023-02-03T15:17:24.519Z,12.49
2023-02-03T15:20:32.071Z,13.18
2023-02-03T15:23:21.496Z,12.91
2023-02-03T15:26:14.998Z,13.36
2023-02-03T15:29:03.444Z,12.94
2023-02-03T15:31:55.182Z,13.59
2023-02-03T15:34:45.917Z,13.43
2023-02-03T15:37:38.686Z,13.40
2023-02-03T15:40:39.299Z,13.29
2023-02-03T15:43:32.773Z,13.05
2023-02-03T15:46:25.594Z,12.96
2023-02-03T15:49:18.918Z,12.79
2023-02-03T15:52:11.946Z,13.27
2023-02-03T15:55:07.589Z,12.83
2023-02-03T15:57:54.325Z,12.77
2023-02-03T16:00:42.279Z,12.98
2023-02-03T16:03:35.079Z,12.38
2023-02-03T16:06:27.743Z,12.27
2023-02-03T16:09:34.499Z,12.27
2023-02-03T16:12:24.944Z,12.32
2023-02-03T16:15:23.621Z,12.28
2023-02-03T16:18:18.450Z,12.54
2023-02-03T16:21:06.620Z,12.26
2023-02-03T16:23:53.450Z,12.62
2023-02-03T16:26:40.055Z,12.85
2023-02-03T16:29:47.679Z,13.33
2023-02-03T16:32:52.018Z,13.44
2023-02-03T16:35:57.818Z,13.52
2023-02-03T16:39:03.847Z,14.02
2023-02-03T16:42:08.195Z,12.82
2023-02-03T16:45:12.721Z,13.15
2023-02-03T16:48:16.919Z,13.68
2023-02-03T16:51:08.232Z,13.50
2023-02-03T16:53:54.727Z,13.71
2023-02-03T16:56:41.628Z,13.73
2023-02-03T16:59:28.506Z,12.90
2023-02-03T17:02:16.156Z,13.06
2023-02-03T17:05:03.211Z,13.12
2023-02-03T17:07:51.323Z,13.06
2023-02-03T17:10:40.782Z,12.76
2023-02-03T17:13:27.385Z,12.85
2023-02-03T17:16:17.535Z,12.43
2023-02-03T17:19:04.363Z,13.68
2023-02-03T17:21:51.570Z,13.23
2023-02-03T17:24:40.174Z,14.19
2023-02-03T17:27:26.925Z,14.47
2023-02-03T17:30:14.847Z,14.78
2023-02-03T17:33:01.984Z,14.16
2023-02-03T17:35:48.322Z,14.70
2023-02-03T17:54:11.930Z,13.60
2023-02-03T17:56:59.976Z,13.44
2023-02-03T17:59:47.936Z,13.52
2023-02-03T18:02:34.701Z,13.51
2023-02-03T18:05:21.721Z,13.48
2023-02-03T18:08:16.248Z,14.52
2023-02-03T18:11:04.557Z,15.32
2023-02-03T18:13:52.678Z,14.17
2023-02-03T18:16:39.558Z,14.47
2023-02-03T18:19:26.059Z,14.64
2023-02-03T18:22:12.605Z,15.01
2023-02-03T18:24:59.334Z,14.66
2023-02-03T18:27:46.054Z,14.77
2023-02-03T18:30:34.388Z,14.71
2023-02-03T18:33:20.856Z,14.35
2023-02-03T18:36:08.490Z,14.70
2023-02-03T18:38:55.286Z,14.67
2023-02-03T18:41:41.960Z,15.22
2023-02-03T18:44:28.512Z,15.04
2023-02-03T18:47:16.559Z,14.33
2023-02-03T18:50:03.306Z,13.68
2023-02-03T18:52:54.514Z,14.05
2023-02-03T18:55:42.421Z,14.41
2023-02-03T18:58:29.230Z,14.25
2023-02-03T19:01:24.270Z,13.85
2023-02-03T19:04:14.051Z,14.00
2023-02-03T19:07:01.021Z,14.67
2023-02-03T19:09:48.345Z,14.67
2023-02-03T19:12:35.317Z,14.58
2023-02-03T19:15:22.118Z,15.02
2023-02-03T19:18:09.438Z,14.35
2023-02-03T19:20:57.661Z,14.42
2023-02-03T19:23:44.258Z,14.45
2023-02-03T19:26:31.503Z,14.54
2023-02-03T19:29:18.344Z,14.61
2023-02-03T19:32:05.393Z,14.46
2023-02-03T19:34:52.233Z,15.46
2023-02-03T19:37:40.287Z,14.52
2023-02-03T19:40:27.108Z,14.52
2023-02-03T19:43:14.150Z,14.37
2023-02-03T19:46:02.172Z,15.00
2023-02-03T19:48:49.309Z,14.61
2023-02-03T19:51:36.256Z,14.27
2023-02-03T19:54:24.799Z,15.29
2023-02-03T19:57:11.283Z,14.67
2023-02-03T19:59:57.904Z,14.70
2023-02-03T20:02:44.577Z,14.73
2023-02-03T20:05:31.738Z,15.17
2023-02-03T20:08:18.642Z,14.25
2023-02-03T20:11:06.735Z,13.51
2023-02-03T20:13:53.912Z,14.23
2023-02-03T20:16:40.233Z,14.65
2023-02-03T20:19:26.684Z,14.20
2023-02-03T20:22:13.294Z,14.38
2023-02-03T20:25:00.328Z,14.68
2023-02-03T20:27:48.804Z,14.50
2023-02-03T20:30:36.042Z,14.92
2023-02-03T20:33:22.700Z,14.45
2023-02-03T20:36:11.479Z,14.60
2023-02-03T20:38:58.182Z,14.72
2023-02-03T20:41:45.054Z,14.81
2023-02-03T20:44:33.421Z,14.71
2023-02-03T20:47:22.139Z,15.01
2023-02-03T20:50:15.801Z,15.34
2023-02-03T20:53:03.320Z,14.31
2023-02-03T20:55:51.304Z,14.44
2023-02-03T20:58:37.909Z,13.66
2023-02-03T21:01:26.068Z,14.15
2023-02-03T21:04:31.604Z,14.09
2023-02-03T21:07:19.056Z,14.60
2023-02-03T21:10:20.587Z,14.33
2023-02-03T21:13:20.665Z,14.53
2023-02-03T21:16:17.371Z,13.95
2023-02-03T21:19:05.922Z,13.92
2023-02-03T21:21:53.112Z,13.43
2023-02-03T21:24:42.917Z,13.85
2023-02-03T21:27:31.194Z,14.38
2023-02-03T21:30:28.245Z,14.91
2023-02-03T21:33:30.717Z,14.07
2023-02-03T21:36:21.225Z,13.25
2023-02-03T21:39:26.633Z,13.40
2023-02-03T21:45:38.473Z,13.38
2023-02-03T21:48:30.900Z,13.81
2023-02-03T21:51:20.629Z,13.49
2023-02-03T21:54:29.457Z,12.98
2023-02-03T21:57:16.349Z,13.58
2023-02-03T22:00:03.515Z,12.93
2023-02-03T22:03:00.779Z,13.40
2023-02-03T22:05:48.411Z,14.14
2023-02-03T22:08:38.870Z,14.91
2023-02-03T22:11:26.702Z,13.95
2023-02-03T22:14:14.188Z,14.66
2023-02-03T22:17:00.770Z,14.13
2023-02-03T22:19:48.571Z,14.10
2023-02-03T22:22:35.204Z,14.51
2023-02-03T22:25:21.938Z,14.72
2023-02-03T22:28:08.623Z,14.67
2023-02-03T22:30:55.158Z,13.96
2023-02-03T22:33:42.558Z,14.17
2023-02-03T22:36:30.780Z,13.85
2023-02-03T22:39:17.379Z,13.43
2023-02-03T22:42:03.959Z,13.77
2023-02-03T22:44:50.796Z,13.26
2023-02-03T22:47:37.370Z,14.01
2023-02-03T22:50:34.628Z,13.85
2023-02-03T22:53:22.897Z,14.07
2023-02-03T22:56:09.384Z,13.47
2023-02-03T22:58:55.940Z,12.75
2023-02-03T23:01:58.499Z,13.30
2023-02-03T23:04:45.168Z,13.28
2023-02-03T23:07:32.107Z,13.49
2023-02-03T23:10:22.256Z,14.37
2023-02-03T23:13:08.820Z,13.82
2023-02-03T23:15:55.663Z,14.51
2023-02-03T23:18:42.116Z,15.00
2023-02-03T23:21:28.634Z,14.27
2023-02-03T23:24:15.203Z,14.93
2023-02-03T23:27:04.076Z,14.83
2023-02-03T23:29:50.235Z,15.29
2023-02-03T23:32:36.853Z,14.94
2023-02-03T23:35:41.165Z,14.88
2023-02-03T23:38:27.737Z,14.98
2023-02-03T23:41:14.221Z,14.98
2023-02-03T23:44:02.623Z,14.33
2023-02-03T23:46:49.768Z,13.96
2023-02-03T23:49:36.124Z,13.76
2023-02-03T23:52:22.832Z,13.87
2023-02-03T23:55:12.189Z,14.45
2023-02-03T23:57:58.691Z,14.43
